Tiempo atmosférico en la estación meteorológica de Palma Aeropuerto, Illes Balears (8 m.)



Fecha
DESCASC
Temp. máxima en grados centígrados (hora)
DESCASC
Temp. mínima en grados centígrados (hora)
DESCASC
Temp. media en grados centígrados
DESCASC
Racha de viento máxima en m/sg (hora)
DESCASC
Velocidad máxima media en intervalos de 10 minutos(hora)
DESCASC
Precipitaciones diarias en mm
DESCASC
Precipitaciones de 00:00 a 06:00 en mm
DESCASC
Precipitaciones de 06:00 a 12:00 en mm
DESCASC
Precipitaciones de 12:00 a 18:00 en mm
DESCASC
Precipitaciones de 18:00 a 24:00 en mm
DESCASC

Gráficas

Temp. máximas Temp. mínimas Temp. medias Precipitaciones Rachas de viento máximas Velocidades máximas media en intervalos de 10 minutos

Datos horarios

Fecha y hora oficial Temperatura (ºC) Velocidad del viento (km/h) Dirección del viento Racha (km/h) Dirección de racha Precipitación (mm) Presión (hPa) Tendencia (hPa) Humedad (%)
2019-10-14 23:00:00 20.7 3 Norte 11 Norte 0 1012.7 1.6 90
2019-10-14 22:00:00 21.6 8 Norte 30 Este 0 1012.5 1.1 87
2019-10-14 21:00:00 23.2 14 Este 26 Este 0.7 1011.3 -0.1 79
2019-10-14 20:00:00 23.3 10 Nordeste 18 Noroeste 0 1011.1 0.1 78
2019-10-14 19:00:00 24.7 5 Noroeste 17 Oeste 0 1011.4 -0.2 71
2019-10-14 18:00:00 25.5 14 Oeste 21 Sudoeste 0.1 1011.4 -0.5 69
2019-10-14 17:00:00 26.7 15 Sudoeste 24 Oeste 0 1011 -1.1 58
2019-10-14 16:00:00 27.9 10 Sudoeste 32 Sur 0 1011.6 -0.8 49
2019-10-14 15:00:00 28.8 23 Sur 37 Sur 0 1011.9 -1.5 41
2019-10-14 14:00:00 28.7 19 Sudoeste 26 Sudoeste 0 1012.1 -2.3 54
2019-10-14 13:00:00 29.9 11 Sudeste 17 Sur 0 1012.4 -2.4 40
2019-10-14 12:00:00 26.6 9 Nordeste 15 Nordeste 0 1013.4 -1 60
2019-10-14 11:00:00 24.3 5 Este 9 Este 0 1014.4 0.2 70
2019-10-14 10:00:00 21.1 4 Noroeste 13 Norte 0 1014.8 0.8 81
2019-10-14 09:00:00 18.2 9 Norte 15 Nordeste 0 1014.4 0.1 94
2019-10-14 08:00:00 17.4 7 Sudoeste 18 Este 0 1014.2 -0.3 95
2019-10-14 07:00:00 17 6 Nordeste 9 Nordeste 0 1014 -0.9 97
2019-10-14 06:00:00 17.3 7 Nordeste 17 Norte 0 1014.3 -1.2 90
2019-10-14 05:00:00 17.5 4 Norte 5 Norte 0 1014.5 -1.2 95
2019-10-14 04:00:00 18.3 3 Norte 9 Noroeste 0 1014.9 -0.6 89
2019-10-14 03:00:00 18.7 7 Noroeste 11 Noroeste 0 1015.5 -0.4 92
2019-10-14 02:00:00 19.3 3 Nordeste 9 Norte 0 1015.7 -0.2 93
2019-10-14 01:00:00 19.6 8 Norte 9 Norte 0 1015.5 -0.5 93
2019-10-14 00:00:00 20.4 6 Nordeste 9 Este 0 1015.9 0.1 92
2019-10-13 23:00:00 21 5 Nordeste 9 Nordeste 0 1015.9 0.4 89
2019-10-13 22:00:00 22.1 9 Nordeste 15 Nordeste 0 1016 1 84
2019-10-13 21:00:00 23 13 Este 18 Este 0 1015.8 1 80
2019-10-13 20:00:00 24.5 13 Este 21 Este 0 1015.5 0.7 73
2019-10-13 19:00:00 26.3 15 Este 24 Este 0 1015 0.1 64
2019-10-13 18:00:00 28.2 18 Este 24 Este 0 1014.8 -0.3 56
2019-10-13 17:00:00 28.8 13 Este 22 Este 0 1014.8 -1 53
2019-10-13 16:00:00 29.1 15 Este 28 Este 0 1014.9 -1.4 54
2019-10-13 15:00:00 29 12 Este 24 Este 0 1015.1 -1.4 53
2019-10-13 14:00:00 28.5 14 Este 26 Este 0 1015.8 -1.1 53
2019-10-13 13:00:00 28.1 18 Este 32 Este 0 1016.3 -0.4 55
2019-10-13 12:00:00 26.4 19 Este 32 Nordeste 0 1016.5 0.3 63
2019-10-13 11:00:00 24.4 22 Este 33 Este 0 1016.9 0.6 73
2019-10-13 10:00:00 23.3 17 Nordeste 28 Nordeste 0 1016.7 0.3 78
2019-10-13 09:00:00 18.8 5 Nordeste 5 Nordeste 0 1016.2 -0.2 92
2019-10-13 08:00:00 18.5 4 Este 11 Nordeste 0 1016.3 -0.3 92
2019-10-13 07:00:00 -- 8 Nordeste 9 Nordeste 0 1016.4 -0.7 --
2019-10-13 06:00:00 19.9 4 Nordeste 9 Nordeste 0 1016.4 -1 88
2019-10-13 05:00:00 20.4 5 Nordeste 8 Nordeste 0 1016.6 -1.2 87
2019-10-13 04:00:00 20.3 3 Norte 9 Nordeste 0 1017.1 -0.8 88
2019-10-13 03:00:00 20 9 Nordeste 11 Nordeste 0 1017.4 -1 89
2019-10-13 02:00:00 19.9 4 Norte 11 Nordeste 0 1017.8 -0.4 91
2019-10-13 01:00:00 19.7 9 Nordeste -- -- -- 1017.9 -0.4 91
2019-10-13 00:00:00 20.3 8 Nordeste 15 Este 0 1018.4 0.2 87
2019-10-12 23:00:00 20.7 9 Nordeste 11 Nordeste 0 1018.2 0.3 86
2019-10-12 22:00:00 21.2 7 Nordeste 11 Nordeste 0 1018.3 0.6 83
2019-10-12 21:00:00 22.1 7 Nordeste 18 Este 0 1018.2 0.7 78
2019-10-12 20:00:00 23.3 13 Este 21 Este 0 1017.9 0.5 73
2019-10-12 19:00:00 24.7 15 Sudeste 24 Sudeste 0 1017.7 -0.1 68
2019-10-12 18:00:00 26.1 18 Sudeste 22 Sudeste 0 1017.5 -0.6 60
2019-10-12 17:00:00 27.5 15 Sudeste 26 Este 0 1017.4 -1.4 53
2019-10-12 16:00:00 28.1 13 Sudeste 28 Sudeste 0 1017.8 -1.6 50
2019-10-12 15:00:00 28.4 16 Sudeste 28 Sudeste 0 1018.1 -1.7 49
2019-10-12 14:00:00 28.2 14 Sudeste 24 Sur 0 1018.8 -1.1 50
2019-10-12 13:00:00 27.3 12 Sudeste -- -- -- 1019.4 -0.3 55
2019-10-12 12:00:00 24.9 15 Este 28 Este 0 1019.8 0.3 65
2019-10-12 11:00:00 23.6 17 Este 26 Este 0 1019.9 0.7 70
2019-10-12 10:00:00 21.6 12 Nordeste 18 Nordeste 0 1019.7 0.3 80
2019-10-12 09:00:00 17.9 3 Este 11 Este 0 1019.5 0.3 91
2019-10-12 08:00:00 17.1 6 Este 13 Este 0 1019.2 -0.2 93
2019-10-12 07:00:00 17.2 6 Este 11 Este 0 1019.4 -0.1 92
2019-10-12 06:00:00 17.3 5 Este 11 Este 0 1019.2 -0.8 92
2019-10-12 05:00:00 17.6 4 Este 8 Nordeste 0 1019.4 -0.8 92
2019-10-12 04:00:00 18 0 Calma 8 Nordeste 0 1019.5 -1 91
2019-10-12 03:00:00 17.9 5 Este 9 Este 0 1020 -0.8 91
2019-10-12 02:00:00 18.2 5 Este 9 Este 0 1020.2 -0.8 89
2019-10-12 01:00:00 18.5 7 Este -- -- 0 1020.5 0.1 90
2019-10-12 00:00:00 19.1 5 Nordeste 9 Nordeste 0 1020.8 0.4 87
2019-10-11 23:00:00 19.6 6 Nordeste 11 Nordeste 0 1021 0.9 85
2019-10-11 22:00:00 20.8 10 Nordeste 15 Nordeste 0 1020.4 0.7 80
2019-10-11 21:00:00 21.4 8 Este 13 Este 0 1020.4 0.8 76
2019-10-11 20:00:00 22.9 7 Sudeste 18 Sudeste 0 1020.1 0.2 71
2019-10-11 19:00:00 24.2 13 Sudeste 24 Sur 0 1019.7 -0.5 64
2019-10-11 18:00:00 25.5 15 Sur 24 Sur 0 1019.6 -1.1 61
2019-10-11 17:00:00 26.7 16 Sur 28 Sur 0 1019.9 -1.4 55
2019-10-11 16:00:00 26.5 18 Sur 35 Sudoeste 0 1020.2 -2 59
2019-10-11 15:00:00 26.8 26 Sudoeste 32 Sudoeste 0 1020.7 -1.9 58
2019-10-11 14:00:00 26.2 15 Oeste 24 Sudoeste 0 1021.3 -1.5 59
2019-10-11 13:00:00 24.9 12 Oeste 21 Oeste 0 1022.2 -0.3 63
2019-10-11 12:00:00 25 10 Sudoeste 18 Sudoeste 0 1022.6 0.4 61
2019-10-11 11:00:00 23.3 6 Sudeste 13 Nordeste 0 1022.8 1 68
2019-10-11 10:00:00 20.6 8 Nordeste 13 Nordeste 0 1022.5 0.8 77
2019-10-11 09:00:00 16.8 5 Nordeste 9 Nordeste 0 1022.2 0.5 89
2019-10-11 08:00:00 15.1 4 Nordeste 9 Este 0 1021.8 0.4 93
2019-10-11 07:00:00 14.8 6 Nordeste 9 Este 0 1021.7 0.1 93
2019-10-11 06:00:00 15.1 5 Este 8 Norte 0 1021.7 -0.2 91
2019-10-11 05:00:00 15.4 4 Norte -- -- 0 1021.4 -0.7 91
2019-10-11 04:00:00 15.6 4 Nordeste -- -- 0 1021.6 -0.6 89
2019-10-11 03:00:00 15.8 2 Norte -- -- 0 1021.9 -0.5 89
2019-10-11 02:00:00 16.5 2 Nordeste 5 Norte 0 1022.1 -0.3 87
2019-10-11 01:00:00 16.7 4 Nordeste 8 Norte 0 1022.2 -0.1 84
2019-10-11 00:00:00 17.2 3 Nordeste 8 Norte 0 1022.4 0.9 83
2019-10-10 23:00:00 18 6 Este 9 Este 0 1022.4 1.4 80
2019-10-10 22:00:00 19.4 5 Este 9 Este 0 1022.3 1.6 74
2019-10-10 21:00:00 21 5 Este 9 Este 0 1021.5 1.2 68
2019-10-10 20:00:00 21.7 10 Este 18 Nordeste 0 1021 0.7 66
2019-10-10 19:00:00 22.3 13 Nordeste 21 Nordeste 0 1020.7 0.3 64
2019-10-10 18:00:00 23.4 15 Nordeste 26 Nordeste 0 1020.3 -0.3 59
2019-10-10 17:00:00 23.8 15 Este 30 Este 0 1020.3 -0.8 56
2019-10-10 16:00:00 23.9 23 Este 28 Este 0 1020.4 -0.9 58
2019-10-10 15:00:00 24.8 13 Este 24 Este 0 1020.6 -0.8 57
2019-10-10 14:00:00 23.5 17 Este 26 Nordeste 0 1021.1 -0.4 62
2019-10-10 13:00:00 24 11 Este 22 Este 0 1021.3 -0.3 61
2019-10-10 12:00:00 24 14 Este 22 Este 0 1021.4 0.8 61
2019-10-10 11:00:00 22.1 14 Este 18 Este 0 1021.5 1.5 71
2019-10-10 10:00:00 20.5 5 Nordeste 8 Norte 0 1021.6 2 83
2019-10-10 09:00:00 19 5 Norte 8 Norte 0 1020.6 1.3 86
2019-10-10 08:00:00 17.4 4 Nordeste 9 Norte 0 1020 0.8 93
2019-10-10 07:00:00 16.6 4 Nordeste 8 Nordeste 0 1019.6 0.2 94
2019-10-10 06:00:00 16.7 8 Este 9 Este 0 1019.3 -0.2 92
2019-10-10 05:00:00 17.2 6 Nordeste -- -- 0 1019.2 -0.4 89
2019-10-10 04:00:00 17.2 6 Nordeste 8 Nordeste 0 1019.4 -0.1 89
2019-10-10 03:00:00 17.9 4 Este -- -- 0 1019.5 0.4 87
2019-10-10 02:00:00 18.7 5 Este 11 Este 0 1019.6 0.9 84
2019-10-10 01:00:00 19.8 8 Este 11 Este 0 1019.5 1.3 79
2019-10-10 00:00:00 20.4 8 Nordeste 13 Este 0 1019.1 1.2 78
2019-10-09 23:00:00 19.5 10 Este 11 Este 0 1018.7 1.2 78
2019-10-09 22:00:00 21.5 6 Sudeste 13 Este 0 1018.2 1.3 69
2019-10-09 21:00:00 22.8 8 Este 15 Este 0 1017.9 1.5 64
2019-10-09 20:00:00 23.1 6 Sudeste 13 Sudoeste 0 1017.5 1.3 66
2019-10-09 19:00:00 23.7 11 Sudoeste 21 Sudoeste 0 1016.9 0.5 63
2019-10-09 18:00:00 24.4 15 Sudoeste 22 Sudoeste 0 1016.4 0 59
2019-10-09 17:00:00 24.9 16 Sudoeste 26 Sudoeste 0 1016.2 -0.9 56
2019-10-09 16:00:00 25 16 Sudoeste 28 Sudoeste 0 1016.4 -1.4 58
2019-10-09 15:00:00 25.2 17 Sudoeste 26 Sudoeste 0 1016.4 -1.4 59
2019-10-09 14:00:00 24.9 14 Sudoeste 24 Sudoeste 0 1017.1 -0.8 58
2019-10-09 13:00:00 25.1 14 Oeste 22 Oeste 0 1017.8 0.1 59
2019-10-09 12:00:00 24.7 12 Oeste 18 Sudoeste 0 1017.8 0.1 58
2019-10-09 11:00:00 24.3 5 Oeste 11 Oeste 0 1017.9 0.7 57
2019-10-09 10:00:00 21 4 Nordeste 5 Nordeste 0 1017.7 0.3 65
2019-10-09 09:00:00 16.9 3 Norte 9 Norte 0 1017.7 0.2 79
2019-10-09 08:00:00 14.6 5 Norte 8 Norte 0 1017.2 -0.3 88
2019-10-09 07:00:00 14.6 4 Nordeste 9 Noroeste 0 1017.4 -0.3 89
2019-10-09 06:00:00 14.6 6 Noroeste 9 Noroeste 0 1017.5 -0.4 88
2019-10-09 05:00:00 14.5 5 Norte 8 Norte 0 1017.5 -0.7 88
2019-10-09 04:00:00 14.8 5 Noroeste -- -- 0 1017.7 -0.7 86
2019-10-09 03:00:00 15.2 3 Nordeste 8 Norte 0 1017.9 -0.6 84
2019-10-09 02:00:00 15.6 3 Norte 8 Norte 0 1018.2 -0.2 81
2019-10-09 01:00:00 15.5 4 Norte 8 Este 0 1018.4 -0.1 82
2019-10-09 00:00:00 16.4 4 Nordeste 8 Nordeste 0 1018.5 0.2 78
2019-10-08 23:00:00 17.5 6 Nordeste 9 Norte 0 1018.4 0.5 73
2019-10-08 22:00:00 18.8 5 Este 17 Sudoeste 0 1018.5 0.7 69
2019-10-08 21:00:00 22.3 12 Sudoeste 21 Sudoeste 0 1018.3 0.5 54
2019-10-08 20:00:00 22.4 13 Sudoeste 26 Sudoeste 0 1017.9 -0.3 55
2019-10-08 19:00:00 23.1 19 Sudoeste 32 Sudoeste 0 1017.8 -0.8 54
2019-10-08 18:00:00 23.7 20 Sudoeste 32 Sudoeste 0 1017.8 -1.1 53
2019-10-08 17:00:00 24.3 21 Sudoeste 32 Sudoeste 0 1018.2 -1.4 52
2019-10-08 16:00:00 24.5 23 Sudoeste 35 Sudoeste 0 1018.6 -1.8 49
2019-10-08 15:00:00 24.4 23 Sudoeste 35 Sudoeste 0 1018.9 -1.7 49
2019-10-08 14:00:00 24.4 21 Sudoeste 30 Sudoeste 0 1019.6 -1 48
2019-10-08 13:00:00 24 14 Sudoeste 22 Oeste 0 1020.4 -0.3 47
2019-10-08 12:00:00 24 10 Sudoeste 18 Sudoeste 0 1020.6 0.4 42
2019-10-08 11:00:00 22.8 3 Este 9 Sudeste 0 1020.6 1 46
2019-10-08 10:00:00 18.6 3 Sudeste 8 Este 0 1020.7 1.5 58
2019-10-08 09:00:00 14.6 4 Norte 9 Noroeste 0 1020.2 1.4 71
2019-10-08 08:00:00 11.3 6 Nordeste 13 Nordeste 0 1019.6 1.1 86
2019-10-08 07:00:00 11.6 6 Nordeste 9 Nordeste 0 1019.2 0.7 88
2019-10-08 06:00:00 12.8 3 Sur 17 Norte 0 1018.8 -0.1 85
2019-10-08 05:00:00 12.9 9 Norte 13 Norte 0 1018.5 -0.4 86
2019-10-08 04:00:00 13.7 5 Este 15 Este 0 1018.5 -0.3 85
2019-10-08 03:00:00 15 7 Norte 17 Noroeste 0 1018.9 0.1 77
2019-10-08 02:00:00 15.3 10 Noroeste 15 Noroeste 0 1018.9 0.3 78
2019-10-08 01:00:00 16 9 Norte 13 Norte 0 1018.8 0.8 82
2019-10-08 00:00:00 16.9 6 Norte 11 Nordeste 0 1018.8 1.7 81
2019-10-07 23:00:00 17.5 9 Nordeste 13 Nordeste 0 1018.6 2.1 77
2019-10-07 22:00:00 18.1 8 Norte 13 Nordeste 0 1018 2.6 74
2019-10-07 21:00:00 20.4 6 Este 17 Este 0 1017.1 2.6 64
2019-10-07 20:00:00 21.3 11 Nordeste 26 Este 0 1016.5 1.9 60
2019-10-07 19:00:00 23.7 19 Este 30 Este 0 1015.4 0.8 49
2019-10-07 18:00:00 25.9 13 Noroeste 26 Noroeste 0 1014.5 -0.1 44
2019-10-07 17:00:00 25.8 15 Noroeste 32 Oeste 0 1014.6 -0.4 45
2019-10-07 16:00:00 24.4 18 Oeste 33 Sudoeste 0 1014.6 -0.4 52
2019-10-07 15:00:00 25.3 21 Oeste 30 Oeste 0 1014.6 -0.7 46
2019-10-07 14:00:00 24.2 10 Nordeste 24 Nordeste 0 1015 -0.4 49
2019-10-07 13:00:00 24.1 15 Este 32 Este 0 1015 -0.1 48
2019-10-07 12:00:00 23.2 22 Este 41 Nordeste 0 1015.3 1.4 49
2019-10-07 11:00:00 21.7 24 Nordeste 37 Nordeste 0 1015.4 2.4 56
2019-10-07 10:00:00 20.3 24 Este 48 Nordeste 0 1015.1 2 67
2019-10-07 09:00:00 21.5 5 Este 26 Noroeste 0 1013.9 1.2 53
2019-10-07 08:00:00 20.4 15 Noroeste 45 Norte 0 1013 -0.2 55
2019-10-07 07:00:00 21.3 22 Norte 41 Noroeste 0 1013.1 -0.9 54
2019-10-07 06:00:00 22.2 24 Noroeste 42 Noroeste 0 1012.7 -2 48
2019-10-07 05:00:00 22.2 16 Noroeste 30 Noroeste 0 1013.2 -2.3 58
2019-10-07 04:00:00 17.6 8 Noroeste 15 Noroeste 0 1014 -1.8 92
2019-10-07 03:00:00 17.2 4 Sudeste 11 Este 0 1014.7 -1.4 93
2019-10-07 02:00:00 17.9 5 Sur 8 Sur 0 1015.5 -0.6 91
2019-10-07 01:00:00 18.1 7 Norte 9 Norte 0 1015.8 0 87
2019-10-07 00:00:00 19.2 4 Norte 9 Norte 0 1016.1 0.6 89
2019-10-06 23:00:00 19.4 7 Nordeste 9 Nordeste 0 1016.1 0.7 87
2019-10-06 22:00:00 20.4 8 Norte 9 Noroeste 0 1015.8 0.7 80
2019-10-06 21:00:00 21.6 5 Norte 9 Oeste 0 1015.5 0.2 71
2019-10-06 20:00:00 24.1 9 Oeste 22 Sudoeste 0 1015.4 0.3 66
2019-10-06 19:00:00 24.7 17 Sudoeste 28 Sudoeste 0 1015.1 -0.7 64
2019-10-06 18:00:00 25.4 22 Sudoeste 30 Sudoeste 0 1015.3 -0.9 63
2019-10-06 17:00:00 26.9 22 Sudoeste 30 Sudoeste 0 1015.1 -1.8 51
2019-10-06 16:00:00 27.4 21 Oeste 30 Sudoeste 0 1015.8 -1.6 53
2019-10-06 15:00:00 26.6 22 Sudoeste 32 Sudoeste 0 1016.2 -1.6 61
2019-10-06 14:00:00 26.3 21 Sudoeste 28 Sudoeste 0 1016.9 -0.3 62
2019-10-06 13:00:00 25.6 15 Sudoeste 24 Sur 0 1017.4 0.6 59
2019-10-06 12:00:00 26.7 5 Sudoeste 11 Sudoeste 0 1017.8 1.1 56
2019-10-06 11:00:00 24.8 5 Noroeste 8 Oeste 0 1017.2 0.9 62
2019-10-06 10:00:00 21.8 2 Nordeste 8 Norte 0 1016.8 0.7 79
2019-10-06 09:00:00 18.3 7 Nordeste 11 Noroeste 0 1016.7 0.7 92
2019-10-06 08:00:00 17 5 Norte 8 Nordeste 0 1016.3 0.4 97
2019-10-06 07:00:00 16.8 3 Este 11 Norte 0 1016.1 0.1 94
2019-10-06 06:00:00 17.4 6 Norte 8 Norte 0 1016 0 95
2019-10-06 05:00:00 17.8 2 Nordeste 5 Nordeste 0 1015.9 -0.2 95
2019-10-06 04:00:00 18 5 Nordeste 8 Norte 0 1016 0 94
2019-10-06 03:00:00 18.1 4 Nordeste -- -- 0 1016 0 94
2019-10-06 02:00:00 18.8 5 Nordeste 5 Nordeste 0 1016.1 0.1 92
2019-10-06 01:00:00 19 -- -- -- -- 0 1016 0.4 91
2019-10-06 00:00:00 19.6 7 Este 9 Nordeste 0 1016 0.8 89
2019-10-05 23:00:00 20.1 6 Nordeste 11 Este 0 1016 1.2 86
2019-10-05 22:00:00 21.3 7 Nordeste 11 Este 0 1015.6 1.3 83
2019-10-05 21:00:00 23.1 8 Sudeste 15 Sur 0 1015.2 0.9 76
2019-10-05 20:00:00 24.2 12 Sudeste 18 Sudeste 0 1014.8 0.6 71
2019-10-05 19:00:00 25.4 12 Sudoeste 24 Sudoeste 0 1014.3 -0.2 67
2019-10-05 18:00:00 26.9 10 Sur 26 Sur 0 1014.3 -0.2 58
2019-10-05 17:00:00 26.5 15 Sur 28 Sudeste 0 1014.2 -0.5 60
2019-10-05 16:00:00 26.2 12 Sur 22 Sudoeste 0 1014.5 -0.7 62
2019-10-05 15:00:00 27.1 17 Sudoeste 26 Sudoeste 0 1014.5 -0.5 57
2019-10-05 14:00:00 26.8 17 Sudoeste 26 Sudoeste 0 1014.7 -0.1 59
2019-10-05 13:00:00 27.1 6 Sudoeste 11 Sudoeste 0 1015.2 0.6 55
2019-10-05 12:00:00 25.3 5 Sudeste 13 Este 0 1015 0.6 63
2019-10-05 11:00:00 24.4 7 Este 13 Este 0 1014.8 0.8 68
2019-10-05 10:00:00 20.9 7 Nordeste 9 Nordeste 0 1014.6 0.6 79
2019-10-05 09:00:00 17.6 6 Norte 9 Norte 0 1014.4 0.2 80
2019-10-05 08:00:00 15.6 5 Noroeste 13 Norte 0 1014 0 85
2019-10-05 07:00:00 16.4 8 Noroeste 9 Noroeste 0 1014 0 92
2019-10-05 06:00:00 16.2 5 Nordeste 9 Nordeste 0 1014.2 -0.3 97
2019-10-05 05:00:00 15.1 6 Nordeste 9 Nordeste 0 1014 -0.7 94
2019-10-05 04:00:00 15.7 3 Norte 4 Norte 0 1014 -0.8 95
2019-10-05 03:00:00 15.9 5 Noroeste 8 Noroeste 0 1014.5 -0.7 94
2019-10-05 02:00:00 16.3 5 Nordeste 8 Nordeste 0 1014.7 -0.1 93
2019-10-05 01:00:00 17 0 Calma 8 Este 0 1014.8 -0.3 90
2019-10-05 00:00:00 18.3 3 Nordeste 8 Noroeste 0 1015.2 0.2 86
2019-10-04 23:00:00 19.3 5 Norte 11 Nordeste 0 1014.8 -0.1 81
2019-10-04 22:00:00 22.2 11 Sudoeste 17 Sudoeste 0 1015.1 0.3 78
2019-10-04 21:00:00 22.8 14 Sudoeste 22 Sudoeste 0 1015 0.2 69
2019-10-04 20:00:00 22.9 12 Sudoeste 22 Sudoeste 0 1014.9 -0.1 64
2019-10-04 19:00:00 23.9 16 Sudoeste 28 Sudoeste 0 1014.8 -0.8 60
2019-10-04 18:00:00 24.6 20 Sudoeste 30 Sudoeste 0 1014.8 -1.3 57
2019-10-04 17:00:00 25 20 Sudoeste 32 Sudoeste 0 1015 -1.5 56
2019-10-04 16:00:00 24.9 21 Sudoeste 32 Sudoeste 0 1015.6 -1.8 56
2019-10-04 15:00:00 25 19 Sur 32 Sudoeste 0 1016.1 -1.5 55
2019-10-04 14:00:00 24.7 18 Sudoeste 28 Sudoeste 0 1016.5 -1.2 55
2019-10-04 13:00:00 24 19 Sudoeste 28 Sudoeste 0 1017.4 0 58
2019-10-04 12:00:00 24.1 17 Sudoeste 24 Sudoeste 0 1017.6 0.7 54
2019-10-04 11:00:00 23.5 3 Sudoeste 9 Norte 0 1017.7 1.2 63
2019-10-04 10:00:00 19.9 3 Nordeste 8 Este 0 1017.4 1 80
2019-10-04 09:00:00 15.9 6 Este 9 Este 0 1016.9 0.7 97
2019-10-04 08:00:00 14.1 6 Nordeste 9 Norte 0 1016.5 0.2 100
2019-10-04 07:00:00 14.7 6 Norte 8 Norte 0 1016.4 0 100
2019-10-04 06:00:00 14.2 5 Nordeste 9 Norte 0 1016.2 -0.3 98
2019-10-04 05:00:00 14.7 6 Noroeste 9 Noroeste 0 1016.3 -0.2 100
2019-10-04 04:00:00 14.8 4 Nordeste 11 Norte 0 1016.4 -0.2 95
2019-10-04 03:00:00 15.4 8 Norte 11 Noroeste 0 1016.5 -0.1 96
2019-10-04 02:00:00 15.8 5 Noroeste 8 Noroeste 0 1016.5 -0.2 96
2019-10-04 01:00:00 16.2 3 Norte -- -- 0 1016.6 0.2 92
2019-10-04 00:00:00 16.6 8 Norte 13 Norte 0 1016.6 0.6 85
2019-10-03 23:00:00 16.5 3 Norte 11 Este 0 1016.7 1.8 80
2019-10-03 22:00:00 17.5 9 Nordeste 13 Nordeste 0 1016.4 1.6 74
2019-10-03 21:00:00 19 4 Nordeste 11 Noroeste 0 1016 1.4 68
2019-10-03 20:00:00 21.3 8 Noroeste 21 Noroeste 0 1014.9 0.3 56
2019-10-03 19:00:00 23.6 14 Noroeste 26 Noroeste 0 1014.8 0.2 46
2019-10-03 18:00:00 25.2 17 Noroeste 28 Noroeste 0 1014.6 -0.1 42
2019-10-03 17:00:00 25.9 15 Noroeste 30 Noroeste 0 1014.6 -0.4 41
2019-10-03 16:00:00 26.7 17 Noroeste 33 Noroeste 0 1014.6 -0.9 42
2019-10-03 15:00:00 26.7 18 Norte 32 Noroeste 0 1014.7 -1 42
2019-10-03 14:00:00 27 17 Noroeste 32 Noroeste 0 1015 -0.6 39
2019-10-03 13:00:00 26.3 13 Noroeste 26 Oeste 0 1015.5 0 44
2019-10-03 12:00:00 25 14 Sudoeste 21 Sudoeste 0 1015.7 0.5 61
2019-10-03 11:00:00 23.3 9 Sudoeste 17 Sudoeste 0 1015.6 0.7 69
2019-10-03 10:00:00 21.1 2 Este 9 Este 0 1015.5 0.5 73
2019-10-03 09:00:00 18.4 7 Este 11 Este 0 1015.2 0.2 89
2019-10-03 08:00:00 16.4 4 Noroeste 8 Oeste 0 1014.9 -0.1 97
2019-10-03 07:00:00 16.8 4 Este 9 Norte 0 1015 -0.1 96
2019-10-03 06:00:00 15.7 6 Nordeste 9 Este 0 1015 -0.5 100
2019-10-03 05:00:00 15.2 3 Norte -- -- 0 1015 -0.6 98
2019-10-03 04:00:00 16.1 4 Este 8 Norte 0 1015.1 -0.5 97
2019-10-03 03:00:00 16.3 0 Calma 5 Este 0 1015.5 -0.2 98
2019-10-03 02:00:00 16.4 6 Norte 11 Este 0 1015.6 0.1 97
2019-10-03 01:00:00 16.5 4 Norte 9 Norte 0 1015.6 0.9 98
2019-10-03 00:00:00 17 8 Norte 11 Norte 0 1015.7 1.8 93
2019-10-02 23:00:00 17.5 5 Norte 9 Norte 0 1015.5 2.4 94
2019-10-02 22:00:00 18.6 8 Este 9 Este 0 1014.7 1.9 89
2019-10-02 21:00:00 19.3 7 Nordeste 18 Nordeste 0 1013.9 1.5 84
2019-10-02 20:00:00 20.5 8 Norte 13 Norte 0 1013.1 0.8 65
2019-10-02 19:00:00 23.3 11 Noroeste 21 Norte 0 1012.8 0.1 52
2019-10-02 18:00:00 24.4 10 Noroeste 22 Noroeste 0 1012.4 -0.1 49
2019-10-02 17:00:00 24.4 15 Noroeste 26 Norte 0 1012.3 -0.5 51
2019-10-02 16:00:00 24.9 15 Noroeste 24 Noroeste 0 1012.7 0 56
2019-10-02 15:00:00 23.5 6 Nordeste 18 Norte 0 1012.5 -0.2 63
2019-10-02 14:00:00 22.4 9 Nordeste 15 Nordeste 0 1012.8 1.1 72
2019-10-02 13:00:00 21.3 10 Nordeste 22 Nordeste 4.3 1012.7 1.2 79
2019-10-02 12:00:00 19.5 27 Este 50 Nordeste 0 1012.7 1.4 77
2019-10-02 11:00:00 24.1 16 Este 33 Nordeste 0 1011.7 1.1 54
2019-10-02 10:00:00 24 20 Este 30 Nordeste 0 1011.5 1.3 57
2019-10-02 09:00:00 22.4 14 Nordeste 22 Nordeste 0 1011.3 1.4 65
2019-10-02 08:00:00 21.4 15 Este 30 Este 0 1010.6 1 73
2019-10-02 07:00:00 21.4 16 Este 30 Nordeste 0 1010.2 0.8 75
2019-10-02 06:00:00 21.6 22 Nordeste 35 Este 0 1009.9 0.3 77
2019-10-02 05:00:00 19.4 7 Este 15 Este 0 1009.6 0 98
2019-10-02 04:00:00 19.7 6 Este 11 Nordeste 0 1009.4 0.3 94
2019-10-02 03:00:00 20.7 9 Nordeste 17 Este 0 1009.6 0.3 91
2019-10-02 02:00:00 22.2 12 Nordeste 15 Nordeste 0 1009.6 0.3 89
2019-10-02 01:00:00 23 11 Oeste 22 Sudoeste 0 1009.1 0.1 85
2019-10-02 00:00:00 23.4 13 Oeste 22 Sudoeste 0 1009.3 0.4 83
2019-10-01 23:00:00 23.6 13 Oeste 21 Oeste 0 1009.3 0.6 81
2019-10-01 22:00:00 23.7 14 Oeste 18 Sudoeste 0 1009 0 81
2019-10-01 21:00:00 23.8 15 Sudoeste 18 Sudoeste 0 1008.9 -0.2 80
2019-10-01 20:00:00 24.1 14 Sudoeste 26 Sudoeste 0 1008.7 -0.5 79
2019-10-01 19:00:00 24.9 19 Sudoeste 32 Sudoeste 0 1009 -1 75
2019-10-01 18:00:00 25.7 22 Sudoeste 30 Sudoeste 0 1009.1 -1.3 71
2019-10-01 17:00:00 26.5 20 Sudoeste 28 Sudoeste 0 1009.2 -1.7 67
2019-10-01 16:00:00 26.6 19 Sudoeste 32 Sudoeste 0 1010 -1.7 66
2019-10-01 15:00:00 27 19 Sudoeste 30 Sudoeste 0 1010.4 -1.9 66
2019-10-01 14:00:00 26.9 18 Sudoeste 28 Sudoeste 0 1010.9 -1.5 66
2019-10-01 13:00:00 26.7 13 Sudoeste 24 Sudoeste 0 1011.7 -0.7 65
2019-10-01 12:00:00 26.4 16 Sudoeste 24 Sudoeste 0 1012.3 0.2 67
2019-10-01 11:00:00 25.4 12 Sudoeste 18 Sudoeste 0 1012.4 0.4 72
2019-10-01 10:00:00 22.4 2 Nordeste 9 Norte 0 1012.4 0.1 81
2019-10-01 09:00:00 19.5 3 Norte 8 Norte 0 1012.1 -0.3 95
2019-10-01 08:00:00 18.5 3 Este 8 Nordeste 0 1012 -0.7 99
2019-10-01 07:00:00 18.4 7 Noroeste -- -- 0 1012.3 -1.2 100
2019-10-01 06:00:00 18.6 4 Este 5 Este 0 1012.4 -1.7 97
2019-10-01 05:00:00 19.3 4 Este 5 Este 0 1012.7 -1.5 95
2019-10-01 04:00:00 19.8 5 Este -- -- 0 1013.5 -1 92
2019-10-01 03:00:00 20.6 2 Norte -- -- 0 1014.1 -0.6 90
2019-10-01 02:00:00 20.4 4 Norte 9 Norte 0 1014.2 -0.8 90
2019-10-01 01:00:00 20.5 5 Norte 8 Noroeste 0 1014.5 -0.5 91
2019-10-01 00:00:00 20.8 5 Norte 9 Norte 0 1014.7 -0.1 91
2019-09-30 23:00:00 21.6 3 Nordeste 13 Sudoeste 0 1015 0.4 86
2019-09-30 22:00:00 23.4 10 Sudoeste 17 Sudoeste 0 1015 0.3 81
2019-09-30 21:00:00 23.8 13 Sudoeste 17 Sudoeste 0 1014.8 0.1 81
2019-09-30 20:00:00 24.2 14 Sudoeste 24 Sudoeste 0 1014.6 -0.5 79
2019-09-30 19:00:00 25.2 17 Sudoeste 26 Sudoeste 0 1014.7 -0.9 73
2019-09-30 18:00:00 26.3 18 Sudoeste 26 Sudoeste 0 1014.7 -1.3 66
2019-09-30 17:00:00 26.8 18 Sudoeste 28 Sudoeste 0 1015.1 -1.6 65
2019-09-30 16:00:00 27.1 18 Sudoeste 30 Sudoeste 0 1015.6 -1.5 62
2019-09-30 15:00:00 27.3 17 Sudoeste 28 Sur 0 1016 -1.3 61
2019-09-30 14:00:00 27.3 19 Sudoeste 35 Sudoeste 0 1016.7 -0.6 62
2019-09-30 13:00:00 27.3 18 Sudoeste 26 Sudoeste 0 1017.1 0.1 61
2019-09-30 12:00:00 27.3 5 Sudoeste 13 Sudoeste 0 1017.3 0.4 61
2019-09-30 11:00:00 25.8 4 Este 15 Sudeste 0 1017.3 1 68
2019-09-30 10:00:00 22.4 3 Noroeste 8 Nordeste 0 1017 1 75
2019-09-30 09:00:00 18.8 3 Noroeste 8 Norte 0 1016.9 1.1 96
2019-09-30 08:00:00 16.8 6 Norte 9 Norte 0 1016.3 0.3 100
2019-09-30 07:00:00 16.8 4 Norte 5 Norte 0 1016 -0.2 100
2019-09-30 06:00:00 16.6 6 Este 8 Este 0 1015.8 -0.8 100
2019-09-30 05:00:00 16.9 5 Nordeste 8 Nordeste 0 1016 -0.7 98
2019-09-30 04:00:00 17.9 3 Este 5 Nordeste 0 1016.2 -0.4 100
2019-09-30 03:00:00 18.3 3 Este -- -- 0 1016.6 0 95
2019-09-30 02:00:00 19.7 6 Norte 8 Norte 0 1016.7 0 90
2019-09-30 01:00:00 20.4 6 Norte 9 Norte 0 1016.6 0 91
2019-09-30 00:00:00 20.7 6 Noroeste 13 Norte 0 1016.6 0.5 88
2019-09-29 23:00:00 22.7 9 Oeste 15 Sudoeste 0 1016.7 0.8 83
2019-09-29 22:00:00 23.8 10 Sudoeste 18 Sudoeste 0 1016.6 0.6 79
2019-09-29 21:00:00 23.9 12 Sudoeste 18 Sudoeste 0 1016.1 -0.1 79
2019-09-29 20:00:00 24.1 12 Sudoeste 28 Sur 0 1015.9 -0.6 78
2019-09-29 19:00:00 24.9 14 Sudoeste 26 Sudoeste 0 1016 -0.8 73
2019-09-29 18:00:00 25.9 18 Sudoeste 30 Sudoeste 0 1016.2 -0.9 70
2019-09-29 17:00:00 26.4 20 Sudoeste 33 Sudoeste 0 1016.5 -1.1 67
2019-09-29 16:00:00 26.6 24 Sudoeste 35 Sudoeste 0 1016.8 -1.1 68
2019-09-29 15:00:00 27 24 Sudoeste 33 Sudoeste 0 1017.1 -1.2 66
2019-09-29 14:00:00 27.1 22 Sudoeste 30 Sudoeste 0 1017.6 -0.7 65
2019-09-29 13:00:00 26.9 16 Sudoeste 24 Sudoeste 0 1017.9 -0.1 63
2019-09-29 12:00:00 26.6 13 Sur 24 Sudoeste 0 1018.3 0.5 64
2019-09-29 11:00:00 25.6 12 Sudoeste 18 Oeste 0 1018.3 0.8 69
2019-09-29 10:00:00 22.8 3 Nordeste -- -- 0 1018 0.4 79
2019-09-29 09:00:00 19 4 Nordeste 5 Nordeste 0 1017.8 -0.1 97
2019-09-29 08:00:00 16.9 3 Nordeste -- -- 0 1017.5 -0.6 100
2019-09-29 07:00:00 17 4 Norte 8 Norte 0 1017.6 -0.6 100
2019-09-29 06:00:00 17.4 -- -- -- -- 0 1017.9 -0.9 100
2019-09-29 05:00:00 17.9 5 Norte 5 Norte 0 1018.1 -0.6 100
2019-09-29 04:00:00 17.9 -- -- -- -- 0 1018.2 -0.6 99
2019-09-29 03:00:00 18.4 5 Nordeste 5 Nordeste 0 1018.8 -0.2 97
2019-09-29 02:00:00 19.3 0 Calma 8 Norte 0 1018.7 -0.5 96
2019-09-29 01:00:00 19.9 -- -- -- -- 0 1018.8 -0.5 91
2019-09-29 00:00:00 20.4 5 Nordeste 9 Nordeste 0 1019 -0.2 91
2019-09-28 23:00:00 21.8 6 Nordeste 13 Sur 0 1019.2 0.3 85
2019-09-28 22:00:00 23.2 3 Nordeste 15 Sudoeste 0 1019.3 0.3 80
2019-09-28 21:00:00 24 11 Sudoeste 21 Sudoeste 0 1019.2 0.2 78
2019-09-28 20:00:00 24.3 13 Sudoeste 26 Sudoeste 0 1018.9 -0.1 76
2019-09-28 19:00:00 25.3 17 Sudoeste 28 Sudoeste 0 1019 -0.3 72
2019-09-28 18:00:00 26.1 19 Sudoeste 32 Sudoeste 0 1019 -0.6 70
2019-09-28 17:00:00 26.7 23 Sudoeste 32 Sudoeste 0 1019 -1.1 67
2019-09-28 16:00:00 26.9 23 Sudoeste 35 Sudoeste 0 1019.3 -1.1 67
2019-09-28 15:00:00 27.2 26 Sudoeste 33 Sudoeste 0 1019.6 -0.8 66
2019-09-28 14:00:00 27.1 24 Sudoeste 33 Sudoeste 0 1020.1 -0.3 64
2019-09-28 13:00:00 27.3 19 Sudoeste 26 Sudoeste 0 1020.4 0.3 63
2019-09-28 12:00:00 27.9 4 Norte 13 Sur 0 1020.4 0.8 58
2019-09-28 11:00:00 26.3 5 Sur 11 Sur 0 1020.4 1.3 66
2019-09-28 10:00:00 23.9 3 Norte 8 Norte 0 1020.1 1.3 77
2019-09-28 09:00:00 20.1 5 Norte 11 Norte 0 1019.6 1 90
2019-09-28 08:00:00 17.8 7 Nordeste 13 Este 0 1019.1 0.5 99
2019-09-28 07:00:00 18.3 4 Norte 5 Norte 0 1018.8 0.3 100
2019-09-28 06:00:00 18.1 4 Norte 8 Norte 0 1018.6 -0.4 98
2019-09-28 05:00:00 18.6 -- -- -- -- 0 1018.6 -0.3 97
2019-09-28 04:00:00 19.2 4 Norte -- -- 0 1018.5 -0.2 95
2019-09-28 03:00:00 19.3 4 Nordeste 5 Este 0 1019 0.5 95
2019-09-28 02:00:00 19.9 3 Norte 8 Nordeste 0 1018.9 0.4 94
2019-09-28 01:00:00 20.6 5 Este 11 Norte 0 1018.7 0.4 88
2019-09-28 00:00:00 20.8 8 Norte 11 Norte 0 1018.5 0.7 90
2019-09-27 23:00:00 21.8 4 Este 9 Nordeste 0 1018.5 1.1 84
2019-09-27 22:00:00 23.7 4 Sur 15 Sudoeste 0 1018.3 1 78
2019-09-27 21:00:00 24.3 11 Sudoeste 18 Sudoeste 0 1017.8 0.5 77
2019-09-27 20:00:00 24.4 13 Sudoeste 24 Sudoeste 0 1017.4 0.1 75
2019-09-27 19:00:00 25.2 16 Sudoeste 26 Sudoeste 0 1017.3 0 72
2019-09-27 18:00:00 26.1 19 Sudoeste 30 Sudoeste 0 1017.3 -0.4 68
2019-09-27 17:00:00 26.4 19 Sudoeste 32 Sudoeste 0 1017.3 -0.8 67
2019-09-27 16:00:00 26.9 23 Sudoeste 32 Sudoeste 0 1017.3 -1.1 65
2019-09-27 15:00:00 26.9 22 Sudoeste 33 Sudoeste 0 1017.7 -1 64
2019-09-27 14:00:00 27 21 Sudoeste 32 Sudoeste 0 1018.1 -0.9 64
2019-09-27 13:00:00 26.9 22 Sudoeste 28 Sudoeste 0 1018.4 -0.5 64
2019-09-27 12:00:00 26.8 14 Sudoeste 18 Sudoeste 0 1018.7 0.1 61
2019-09-27 11:00:00 26.1 9 Sudoeste 15 Sudoeste 0 1019 0.7 66
2019-09-27 10:00:00 24.2 2 Este 5 Este 0 1018.9 0.9 73
2019-09-27 09:00:00 19.9 2 Norte -- -- 0 1018.6 0.6 92
2019-09-27 08:00:00 17.1 4 Nordeste 8 Nordeste 0 1018.3 0.2 100
2019-09-27 07:00:00 17.3 4 Nordeste -- -- 0 1018 -0.3 99
2019-09-27 06:00:00 17.1 4 Nordeste -- -- 0 1018 -0.6 96
2019-09-27 05:00:00 17.6 4 Norte 5 Norte 0 1018.1 -0.7 98
2019-09-27 04:00:00 17.8 2 Este 8 Nordeste 0 1018.3 -0.7 95
2019-09-27 03:00:00 18.5 4 Nordeste 8 Nordeste 0 1018.6 -0.5 92
2019-09-27 02:00:00 19 4 Nordeste 8 Norte 0 1018.8 -0.1 92
2019-09-27 01:00:00 19.8 7 Norte 8 Norte 0 1019 0.2 90
2019-09-27 00:00:00 20.3 6 Norte 8 Norte 0 1019.1 0.6 87
2019-09-26 23:00:00 21.4 5 Nordeste 17 Sur 0 1018.9 0.8 81
2019-09-26 22:00:00 23 10 Sudeste 15 Sudoeste 0 1018.8 0.9 76
2019-09-26 21:00:00 23.8 12 Sudoeste 21 Sur 0 1018.5 0.8 75
2019-09-26 20:00:00 24 14 Sudoeste 24 Sudoeste 0 1018.1 0.1 72
2019-09-26 19:00:00 25.1 17 Sudoeste 30 Sudoeste 0 1017.9 -0.3 67
2019-09-26 18:00:00 25.8 23 Sudoeste 33 Sudoeste 0 1017.7 -0.7 64
2019-09-26 17:00:00 26.2 26 Sudoeste 33 Sudoeste 0 1018 -0.9 62
2019-09-26 16:00:00 26.4 24 Sudoeste 33 Sudoeste 0 1018.2 -1.2 59
2019-09-26 15:00:00 26.6 24 Sudoeste 33 Sudoeste 0 1018.4 -1.1 59
2019-09-26 14:00:00 26.8 20 Sudoeste 28 Sudoeste 0 1018.9 -0.5 59
2019-09-26 13:00:00 26.4 18 Sudoeste 30 Sudoeste 0 1019.4 0.2 62
2019-09-26 12:00:00 26.1 14 Sudoeste 22 Sudoeste 0 1019.5 0.8 57
2019-09-26 11:00:00 25.4 5 Noroeste 9 Oeste 0 1019.4 1.3 60
2019-09-26 10:00:00 22.9 4 Este 8 Sudeste 0 1019.2 -- 72
2019-09-26 09:00:00 19 5 Nordeste 8 Nordeste 0 1018.7 -- 87
2019-09-26 08:00:00 16.5 3 Este -- -- -- 1018.1 -- 96
2019-09-26 07:00:00 -- -- -- -- -- -- -- -- --
2019-09-26 06:00:00 -- -- -- -- -- -- -- -- --
2019-09-26 05:00:00 -- -- -- -- -- -- -- -- --
2019-09-26 04:00:00 -- -- -- -- -- -- -- -- --
2019-09-26 03:00:00 -- -- -- -- -- -- -- -- --
2019-09-26 02:00:00 19.6 3 Nordeste 5 Nordeste 0 1017.2 0.6 85
2019-09-26 01:00:00 19.7 4 Nordeste 5 Nordeste 0 1017.2 0.9 86
2019-09-26 00:00:00 19.9 3 Este 8 Este 0 1017 1.4 84
2019-09-25 23:00:00 20.6 4 Este 13 Nordeste 0 1016.6 1.6 81
2019-09-25 22:00:00 21.7 11 Nordeste 18 Este 0 1016.3 2 77
2019-09-25 21:00:00 22.4 13 Nordeste 22 Este 0 1015.6 1.7 74
2019-09-25 20:00:00 23.3 17 Este 32 Este 0 1015 1.6 69
2019-09-25 19:00:00 24.6 26 Nordeste 37 Este 0 1014.3 1 64
2019-09-25 18:00:00 25.9 29 Este 39 Este 0 1013.9 0.9 61
2019-09-25 17:00:00 26.8 29 Este 45 Nordeste 0 1013.4 0.6 59
2019-09-25 16:00:00 27.7 31 Este 45 Este 0 1013.3 0.1 59
2019-09-25 15:00:00 28.8 28 Este 39 Este 0 1013 -0.3 53
2019-09-25 14:00:00 29.6 17 Este 30 Este 0 1012.8 -0.4 50
2019-09-25 13:00:00 29.1 15 Este 30 Nordeste 0 1013.2 0.6 49
2019-09-25 12:00:00 28.4 6 Este 17 Este 0 1013.3 0.9 57
2019-09-25 11:00:00 27.5 3 Nordeste 9 Noroeste 0 1013.2 0.9 66
2019-09-25 10:00:00 24.7 5 Nordeste 11 Nordeste 0 1012.6 0.4 80
2019-09-25 09:00:00 21.6 6 Norte 9 Norte 0 1012.4 0.3 87
2019-09-25 08:00:00 19.9 7 Norte 13 Norte 0 1012.3 -0.1 93
2019-09-25 07:00:00 19.6 5 Norte 11 Norte 0 1012.2 -0.5 96
2019-09-25 06:00:00 18.7 2 Sudeste 9 Norte 0 1012.1 -0.9 100
2019-09-25 05:00:00 17.7 3 Norte 8 Norte 0 1012.4 -1 100
2019-09-25 04:00:00 18 4 Nordeste 8 Norte 0 1012.7 -1.3 97
2019-09-25 03:00:00 18.3 2 Norte 8 Norte 0 1013 -1.2 92
2019-09-25 02:00:00 19.4 4 Norte 11 Norte 0 1013.4 -1 90
2019-09-25 01:00:00 20.5 6 Norte 11 Noroeste 0 1014 -0.5 89
2019-09-25 00:00:00 22.9 8 Oeste 18 Sudoeste 0 1014.2 -0.2 84
2019-09-24 23:00:00 23.6 13 Oeste 18 Sudoeste 0 1014.4 0.3 80
2019-09-24 22:00:00 23.9 13 Oeste 22 Sudoeste 0 1014.5 0.5 81
2019-09-24 21:00:00 24.4 19 Sudoeste 24 Sudoeste 0 1014.4 0.1 79
2019-09-24 20:00:00 24.7 20 Sudoeste 30 Sudoeste 0 1014.1 -0.5 78
2019-09-24 19:00:00 25.9 23 Sudoeste 32 Sudoeste 0 1014 -1 72
2019-09-24 18:00:00 26.5 23 Sudoeste 33 Sudoeste 0 1014.3 -1.1 68
2019-09-24 17:00:00 26.9 26 Sudoeste 37 Oeste 0 1014.6 -1.4 70
2019-09-24 16:00:00 27.1 27 Sudoeste 39 Sudoeste 0 1015 -1.6 67
2019-09-24 15:00:00 27.6 27 Sudoeste 37 Sudoeste 0 1015.4 -1.5 65
2019-09-24 14:00:00 27.1 27 Sudoeste 37 Sudoeste 0 1016 -1.2 66
2019-09-24 13:00:00 27.1 29 Sudoeste 37 Sudoeste 0 1016.6 -0.4 65
2019-09-24 12:00:00 26.5 26 Sudoeste 35 Sudoeste 0 1016.9 0.2 69
2019-09-24 11:00:00 25.7 13 Sudoeste 22 Sudoeste 0 1017.2 0.4 69
2019-09-24 10:00:00 23.6 0 Calma 5 Este 0 1017 0.4 73
2019-09-24 09:00:00 19.4 3 Nordeste 5 Norte 0 1016.7 0.3 90
2019-09-24 08:00:00 16.9 3 Nordeste 9 Norte 0 1016.8 -0.3 97
2019-09-24 07:00:00 16.8 7 Norte 8 Norte 0 1016.6 -0.8 99
2019-09-24 06:00:00 17 5 Nordeste -- -- 0 1016.4 -1.5 96
2019-09-24 05:00:00 17.5 4 Norte 5 Norte 0 1017.1 -1.1 89
2019-09-24 04:00:00 17.7 0 Calma -- -- 0 1017.4 -1 86
2019-09-24 03:00:00 18.6 9 Norte 9 Norte 0 1017.9 -0.6 81
2019-09-24 02:00:00 18.9 6 Noroeste 11 Norte 0 1018.2 -0.3 79
2019-09-24 01:00:00 19.7 9 Norte 11 Norte 0 1018.4 0.1 78
2019-09-24 00:00:00 20.5 5 Norte 8 Norte 0 1018.5 0.4 86
2019-09-23 23:00:00 22.1 3 Nordeste 9 Nordeste 0 1018.5 1.1 80
2019-09-23 22:00:00 23.6 7 Oeste 18 Sudoeste 0 1018.3 1.1 70
2019-09-23 21:00:00 24.2 15 Sudoeste 22 Sudoeste 0 1018.1 0.8 73
2019-09-23 20:00:00 24.6 17 Sudoeste 28 Sudoeste 0 1017.4 0.2 71
2019-09-23 19:00:00 25.1 19 Sudoeste 30 Sudoeste 0 1017.2 0.1 70
2019-09-23 18:00:00 25.9 21 Sudoeste 33 Sudoeste 0 1017.3 0.3 65
2019-09-23 17:00:00 26.6 23 Sudoeste 37 Sur 0 1017.2 -0.2 62
2019-09-23 16:00:00 27.3 24 Sudoeste 32 Sudoeste 0 1017.1 -0.8 59
2019-09-23 15:00:00 29.3 7 Este 18 Nordeste 0 1017 -1.3 43
2019-09-23 14:00:00 27.6 6 Este 24 Nordeste 0 1017.4 -1.1 49
2019-09-23 13:00:00 26.1 18 Nordeste 35 Este 0 1017.9 -0.2 53
2019-09-23 12:00:00 25.9 23 Este 35 Nordeste 0 1018.3 1 53
2019-09-23 11:00:00 24.6 21 Este 35 Este 0 1018.5 2 58
2019-09-23 10:00:00 23.8 29 Este 39 Este 0 1018.1 2.3 63
2019-09-23 09:00:00 22.6 19 Este 30 Este 0 1017.3 2.2 72
2019-09-23 08:00:00 22.1 23 Este 39 Este 0 1016.5 2 81
2019-09-23 07:00:00 21.6 16 Este 28 Este 0 1015.8 1.1 90
2019-09-23 06:00:00 21 15 Nordeste 22 Nordeste 0 1015.1 0.4 100
2019-09-23 05:00:00 20.1 3 Nordeste 8 Nordeste 0 1014.5 -0.2 99
2019-09-23 04:00:00 20.5 5 Norte 9 Norte 0 1014.7 0 96
2019-09-23 03:00:00 20.8 5 Nordeste 9 Norte 0 1014.7 0.2 96
2019-09-23 02:00:00 21.8 0 Calma 11 Norte 0 1014.7 0.6 92
2019-09-23 01:00:00 22.9 7 Noroeste 11 Oeste 0 1014.7 0.9 87
2019-09-23 00:00:00 24.2 7 Oeste 17 Oeste 0 1014.5 1.4 85
2019-09-22 23:00:00 24.2 9 Oeste 17 Oeste 0 1014.1 1.4 86
2019-09-22 22:00:00 24.8 9 Oeste 24 Sudoeste 0 1013.8 1.3 84
2019-09-22 21:00:00 24.9 17 Sudoeste 24 Sudoeste 0 1013.1 1 82
2019-09-22 20:00:00 24.9 18 Sudoeste 28 Sudoeste 0 1012.7 0.8 81
2019-09-22 19:00:00 25.7 22 Sudoeste 33 Sudoeste 0 1012.5 0.5 75
2019-09-22 18:00:00 26.7 28 Sudoeste 39 Sudoeste 0 1012.1 0.2 73
2019-09-22 17:00:00 27.1 28 Sudoeste 41 Sudoeste 0 1011.9 -0.3 72
2019-09-22 16:00:00 27.8 27 Sudoeste 39 Sudoeste 0 1012 -0.5 71
2019-09-22 15:00:00 28.2 27 Sudoeste 37 Sur 0 1011.9 -0.8 67
2019-09-22 14:00:00 28.6 21 Sudoeste 30 Sudoeste 0 1012.2 -0.8 65
2019-09-22 13:00:00 28 21 Sudoeste 35 Sudoeste 0 1012.5 -0.2 69
2019-09-22 12:00:00 27.8 22 Sudoeste 32 Sudoeste 0 1012.7 0.5 71
2019-09-22 11:00:00 26.3 23 Sudoeste 30 Sudoeste 0 1013 1.3 78
2019-09-22 10:00:00 25.4 13 Oeste 18 Sudoeste 0 1012.7 1.4 80
2019-09-22 09:00:00 24 8 Oeste 11 Oeste 0 1012.2 1 86
2019-09-22 08:00:00 23.4 7 Oeste 17 Oeste 0 1011.7 0.4 85
2019-09-22 07:00:00 23.6 13 Oeste 21 Sudoeste 0 1011.3 0 85
2019-09-22 06:00:00 22.7 4 Sur 11 Oeste 0 1011.2 -0.3 84
2019-09-22 05:00:00 22.9 7 Oeste 13 Oeste 0 1011.3 0.3 79
2019-09-22 04:00:00 22.8 4 Noroeste 9 Oeste 0 1011.3 0.1 89
2019-09-22 03:00:00 23.6 8 Sudoeste 11 Sudoeste 0 1011.5 0.1 88
2019-09-22 02:00:00 23.1 4 Nordeste 11 Nordeste 0 1011 -0.5 89
2019-09-22 01:00:00 23.6 5 Nordeste 11 Este 0 1011.2 0.1 84
2019-09-22 00:00:00 24 3 Nordeste 13 Norte 0 1011.4 0.7 79
2019-09-21 23:00:00 25.2 6 Noroeste 18 Oeste 0 1011.5 1.3 76
2019-09-21 22:00:00 25.4 12 Oeste 22 Noroeste 0 1011.1 1.4 73
2019-09-21 21:00:00 25.6 12 Oeste 22 Oeste 0 1010.7 1 74
2019-09-21 20:00:00 26.3 14 Noroeste 28 Noroeste 0 1010.2 0.8 70
2019-09-21 19:00:00 28.2 18 Noroeste 32 Noroeste 0 1009.7 0.4 60
2019-09-21 18:00:00 28.6 18 Sudoeste 26 Sudoeste 0 1009.7 0.1 67
2019-09-21 17:00:00 30.3 11 Sudoeste 26 Sur 0 1009.4 -1.1 55
2019-09-21 16:00:00 31 17 Sudoeste 28 Sudoeste 0 1009.3 -2.7 49
2019-09-21 15:00:00 31.4 12 Sudoeste 22 Sur 0 1009.6 -3 49
2019-09-21 14:00:00 29.2 6 Este 22 Sudeste 0 1010.5 -1.7 65
2019-09-21 13:00:00 28.5 13 Sudeste 24 Sudeste 0 1012 0.4 69
2019-09-21 12:00:00 27.7 8 Sudeste 18 Este 0 1012.6 1.1 70
2019-09-21 11:00:00 26.8 12 Este 24 Este 0 1012.2 0.5 76
2019-09-21 10:00:00 26.1 17 Nordeste 26 Nordeste 0 1011.6 -1.1 79
2019-09-21 09:00:00 23.8 18 Nordeste 26 Nordeste 0 1011.5 -2 89
2019-09-21 08:00:00 23.9 18 Nordeste 26 Nordeste 0 1011.7 -1.3 87
2019-09-21 07:00:00 23.6 13 Nordeste 18 Nordeste 0 1012.7 -0.4 89
2019-09-21 06:00:00 24.5 11 Este 17 Este 0 1013.5 0.4 81
2019-09-21 05:00:00 24.1 9 Este 22 Nordeste 0 1013 -0.7 82
2019-09-21 04:00:00 24.1 14 Nordeste 28 Nordeste 0 1013.1 -1.7 82
2019-09-21 03:00:00 24 18 Nordeste 26 Nordeste 0 1013.1 -2.1 81
2019-09-21 02:00:00 23.4 14 Este 18 Este 0 1013.7 -2.1 84
2019-09-21 01:00:00 23.1 10 Este 13 Este 0 1014.8 -0.5 83
2019-09-21 00:00:00 23.4 7 Este 13 Este 0 1015.2 0.2 80
2019-09-20 23:00:00 23.6 8 Este 13 Este 0 1015.8 0.4 78
2019-09-20 22:00:00 23.5 9 Este 21 Nordeste 0 1015.3 -1 77
2019-09-20 21:00:00 24.2 13 Nordeste 22 Este 0 1015 -0.8 72
2019-09-20 20:00:00 25.1 18 Este 26 Este 0 1015.4 0.1 65
2019-09-20 19:00:00 26.5 21 Este 30 Este 0 1016.3 0.9 59
2019-09-20 18:00:00 27.1 20 Este 35 Nordeste 0 1015.8 -0.2 60
2019-09-20 17:00:00 28.1 26 Nordeste 41 Este 0 1015.3 -1.2 57
2019-09-20 16:00:00 29.4 26 Este 39 Este 0 1015.4 -1.6 50
2019-09-20 15:00:00 29.3 25 Nordeste 37 Este 0 1016 -1.8 52
2019-09-20 14:00:00 29.8 21 Este 39 Este 0 1016.5 -1.5 48
2019-09-20 13:00:00 28.6 18 Este 30 Este 0 1017 -1 51
2019-09-20 12:00:00 27.2 13 Este 30 Este 0 1017.8 -0.1 60
2019-09-20 11:00:00 26 18 Este 26 Este 0 1018 0.8 66
2019-09-20 10:00:00 24.4 17 Nordeste 24 Nordeste 0 1018 1 73
2019-09-20 09:00:00 21 4 Este 15 Nordeste 0 1017.9 1.3 93
2019-09-20 08:00:00 19.3 13 Este 13 Nordeste 0 1017.2 0.4 93
2019-09-20 07:00:00 19.4 4 Este 11 Nordeste 0 1017 0 93
2019-09-20 06:00:00 19.6 10 Este 13 Este 0 1016.6 -0.5 93
2019-09-20 05:00:00 19.5 5 Nordeste 8 Nordeste 0 1016.8 -0.6 93
2019-09-20 04:00:00 19.9 5 Nordeste 5 Nordeste 0 1017 -0.3 93
2019-09-20 03:00:00 20.3 5 Este 9 Este 0 1017.1 -0.5 91
2019-09-20 02:00:00 20.7 6 Este 9 Este 0 1017.4 0.1 89
2019-09-20 01:00:00 21.5 7 Este 11 Este 0 1017.3 0.1 84
2019-09-20 00:00:00 22 7 Este 13 Este 0 1017.6 1.2 82
2019-09-19 23:00:00 22.4 10 Este 15 Este 0 1017.3 1.6 80
2019-09-19 22:00:00 23.6 10 Este 17 Este 0 1017.2 1.5 76
2019-09-19 21:00:00 24.5 13 Nordeste 18 Nordeste 0 1016.4 0.9 74
2019-09-19 20:00:00 24.5 9 Oeste 21 Sudoeste 0 1015.7 0.2 76
2019-09-19 19:00:00 24.7 11 Oeste 21 Sudoeste 0 1015.7 0.3 74
2019-09-19 18:00:00 25.5 15 Sudoeste 24 Sudoeste 0 1015.5 -0.3 68
2019-09-19 17:00:00 26.9 16 Sudoeste 33 Sudoeste 0 1015.5 -0.6 65
2019-09-19 16:00:00 27.6 18 Sudoeste 28 Sudoeste 0 1015.4 -0.9 61
2019-09-19 15:00:00 27.8 19 Sudoeste 30 Sudoeste 0 1015.8 -0.6 61
2019-09-19 14:00:00 27.4 21 Sudoeste 26 Oeste 0 1016.1 -0.1 62
2019-09-19 13:00:00 27.8 17 Sudoeste 28 Sudoeste 0 1016.3 0.5 61
2019-09-19 12:00:00 27.9 7 Sudeste 15 Este 0 1016.4 0.8 61
2019-09-19 11:00:00 26.5 5 Este 13 Este 0 1016.2 1 63
2019-09-19 10:00:00 23.9 8 Nordeste 11 Nordeste 0 1015.8 0.8 75
2019-09-19 09:00:00 20.5 4 Nordeste 9 Nordeste 0 1015.6 0.5 87
2019-09-19 08:00:00 19.7 7 Norte 11 Norte 0 1015.2 -0.1 90
2019-09-19 07:00:00 19.2 6 Norte 8 Norte 0 1015 -0.7 94
2019-09-19 06:00:00 19.5 4 Norte 9 Nordeste 0 1015.1 -0.4 94
2019-09-19 05:00:00 19.8 9 Este 13 Este 0 1015.3 -0.2 92
2019-09-19 04:00:00 20 6 Nordeste 8 Norte 0 1015.7 0.3 92
2019-09-19 03:00:00 20.3 2 Norte 5 Norte 0 1015.5 0.1 85
2019-09-19 02:00:00 21.1 5 Norte 9 Norte 0 1015.5 0.3 84
2019-09-19 01:00:00 21 8 Norte -- -- 0 1015.4 0.3 84
2019-09-19 00:00:00 21 7 Nordeste 11 Nordeste 0 1015.4 0.8 82
2019-09-18 23:00:00 21.5 9 Nordeste 13 Nordeste 0 1015.2 1.2 78
2019-09-18 22:00:00 22.8 6 Este 13 Nordeste 0 1015.1 1.3 73
2019-09-18 21:00:00 23 4 Nordeste 8 Nordeste 0 1014.6 1 76
2019-09-18 20:00:00 24.5 6 Sur 21 Sur 0 1014 0.3 71
2019-09-18 19:00:00 25.7 12 Sur 24 Sudoeste 0 1013.8 -0.2 68
2019-09-18 18:00:00 26.9 19 Sudoeste 26 Sur 0 1013.6 -0.8 55
2019-09-18 17:00:00 27.3 18 Sudoeste 26 Sudoeste 0 1013.7 -1.3 63
2019-09-18 16:00:00 28.3 12 Sudoeste 24 Sudoeste 0 1014 -1.4 58
2019-09-18 15:00:00 27.6 13 Sudoeste 26 Sudoeste 0 1014.4 -1.2 61
2019-09-18 14:00:00 26.6 16 Sudoeste 26 Sudoeste 0 1015 -0.1 68
2019-09-18 13:00:00 26.1 18 Sudoeste 30 Oeste 0 1015.4 1 70
2019-09-18 12:00:00 25.4 18 Sudoeste 28 Sudoeste 0 1015.6 1.8 73
2019-09-18 11:00:00 25.5 6 Sur 17 Este 0 1015.1 1.6 68
2019-09-18 10:00:00 23.4 11 Nordeste 15 Este 0 1014.4 1.4 80
2019-09-18 09:00:00 20.8 4 Nordeste 5 Nordeste 0 1013.8 1.1 87
2019-09-18 08:00:00 19.1 0 Calma 9 Este 0 1013.5 0.7 94
2019-09-18 07:00:00 18.5 5 Norte -- -- 0 1013 -0.3 94
2019-09-18 06:00:00 18.8 5 Nordeste 8 Nordeste 0 1012.7 -1.3 93
2019-09-18 05:00:00 19.5 4 Nordeste 11 Nordeste 0 1012.8 -1.8 93
2019-09-18 04:00:00 20.2 5 Nordeste 9 Este 0 1013.3 -1.8 93
2019-09-18 03:00:00 20.7 5 Este 9 Nordeste 0 1014 -1.2 87
2019-09-18 02:00:00 21.8 4 Norte 13 Sudoeste 0 1014.6 -0.5 83
2019-09-18 01:00:00 22.6 9 Sudoeste 18 Oeste 0 1015.1 0.3 83
2019-09-18 00:00:00 22.9 12 Oeste 21 Sudoeste 0 1015.2 1.1 82
2019-09-17 23:00:00 23.3 13 Sudoeste 18 Sudoeste 0 1015.1 1.5 81
2019-09-17 22:00:00 23.5 12 Sur 22 Sudoeste 0 1014.8 1.9 81
2019-09-17 21:00:00 24.1 11 Sur 21 Sudoeste 0 1014.1 0.4 78
2019-09-15 18:00:00 27.1 26 Este 41 Este 0 1017.7 -0.8 62
2019-09-15 17:00:00 27.9 27 Este 37 Este 0 1018.1 -0.9 57
2019-09-15 16:00:00 28.6 25 Este 35 Este 0 1018.3 -0.9 56
2019-09-15 15:00:00 28.8 21 Este 41 Este 0 1018.5 -1 55
2019-09-15 14:00:00 28.3 26 Este 41 Este 0 1019 -0.7 55
2019-09-15 13:00:00 27.9 30 Este 41 Este 0 1019.2 -0.2 56
2019-09-15 12:00:00 26.2 29 Este 42 Este 0 1019.5 0.2 63
2019-09-15 11:00:00 25.3 26 Este 39 Nordeste 0 1019.7 0.4 71
2019-09-15 10:00:00 24 24 Nordeste 35 Nordeste 0 1019.4 0.3 78
2019-09-15 09:00:00 23.1 20 Nordeste 32 Nordeste 0 1019.3 0.1 85
2019-09-15 08:00:00 22.5 25 Nordeste 39 Nordeste 0 1019.3 0.7 87
2019-09-15 07:00:00 22.4 23 Nordeste 33 Nordeste 0 1019.1 0.3 87
2019-09-15 06:00:00 22.2 23 Este 39 Este 0 1019.2 -0.2 90
2019-09-15 05:00:00 22 24 Este 35 Nordeste 0 1018.6 -2 88
2019-09-15 04:00:00 21.8 12 Nordeste 28 Nordeste 0 1018.8 -0.6 83
2019-09-15 03:00:00 21.7 16 Este 24 Este 0 1019.4 -1.3 84
2019-09-15 02:00:00 22.2 15 Nordeste 45 Nordeste 0 1020.6 -0.7 82
2019-09-15 01:00:00 21.9 32 Nordeste 46 Nordeste 0 1019.4 -1.5 83
2019-09-15 00:00:00 21.8 27 Este 41 Este 0 1020.7 1.2 83